Time;durP1;ratioP1;P1;durP2;ratioP2;P2;SDS_P1;SDS_P2;PMS_P1;PMS_P2;Temp;Humidity;BMP_temperature;BMP_pressure;BME280_temperature;BME280_humidity;BME280_pressure;Samples;Min_cycle;Max_cycle;Signal;HPM_P1;HPM_P2
2023/07/22 00:01:07;;;;;;;;;;;24.70;48.30;;;;;;1555889;74;1549;-58
2023/07/22 00:03:08;;;;;;;;;;;24.80;48.20;;;;;;1558507;74;774;-58
2023/07/22 00:05:10;;;;;;;;;;;24.70;48.00;;;;;;1558994;74;767;-58
2023/07/22 00:07:12;;;;;;;;;;;24.80;47.80;;;;;;1549379;76;1088;-58
2023/07/22 00:09:14;;;;;;;;;;;24.70;47.70;;;;;;1557818;76;1216;-59
2023/07/22 00:11:16;;;;;;;;;;;24.70;47.60;;;;;;1498963;77;625;-59
2023/07/22 00:13:18;;;;;;;;;;;24.70;47.50;;;;;;1538792;75;662;-59
2023/07/22 00:15:22;;;;;;;;;;;24.70;47.40;;;;;;1539051;75;1487;-57
2023/07/22 00:17:24;;;;;;;;;;;24.80;47.20;;;;;;1533863;75;2006;-57
2023/07/22 00:19:26;;;;;;;;;;;24.70;47.30;;;;;;1538729;75;1142;-58
2023/07/22 00:21:29;;;;;;;;;;;24.80;47.20;;;;;;1538689;76;790;-57
2023/07/22 00:23:31;;;;;;;;;;;24.70;47.00;;;;;;1546080;76;852;-58
2023/07/22 00:25:32;;;;;;;;;;;24.70;46.80;;;;;;1544782;75;754;-56
2023/07/22 00:27:34;;;;;;;;;;;24.70;46.70;;;;;;1545211;75;762;-57
2023/07/22 00:29:36;;;;;;;;;;;24.70;46.60;;;;;;1540938;76;1392;-58
2023/07/22 00:31:38;;;;;;;;;;;24.80;46.50;;;;;;1540371;76;792;-58
2023/07/22 00:33:40;;;;;;;;;;;24.70;46.40;;;;;;1529361;76;786;-58
2023/07/22 00:35:42;;;;;;;;;;;24.70;46.40;;;;;;1530600;75;688;-58
2023/07/22 00:37:44;;;;;;;;;;;24.80;46.40;;;;;;1544710;76;2102;-58
2023/07/22 00:39:45;;;;;;;;;;;24.80;46.30;;;;;;1541406;76;1070;-58
2023/07/22 00:41:47;;;;;;;;;;;24.70;46.40;;;;;;1536127;76;664;-58
2023/07/22 00:43:49;;;;;;;;;;;24.70;46.50;;;;;;1545069;75;1552;-58
2023/07/22 00:45:51;;;;;;;;;;;24.70;46.50;;;;;;1539696;76;942;-58
2023/07/22 00:47:53;;;;;;;;;;;24.70;46.40;;;;;;1530828;76;720;-56
2023/07/22 00:49:55;;;;;;;;;;;24.80;46.40;;;;;;1539898;76;1148;-57
2023/07/22 00:51:58;;;;;;;;;;;24.70;46.50;;;;;;1534824;75;750;-57
2023/07/22 00:54:00;;;;;;;;;;;24.70;46.50;;;;;;1543148;76;796;-58
2023/07/22 00:56:02;;;;;;;;;;;24.70;46.60;;;;;;1541691;75;768;-58
2023/07/22 00:58:04;;;;;;;;;;;24.70;46.50;;;;;;1537407;76;1938;-57
2023/07/22 01:00:06;;;;;;;;;;;24.80;46.40;;;;;;1547096;76;1114;-57
2023/07/22 01:02:09;;;;;;;;;;;24.70;46.30;;;;;;1530221;76;665;-58
2023/07/22 01:04:13;;;;;;;;;;;24.70;46.30;;;;;;1532133;76;778;-58
2023/07/22 01:06:15;;;;;;;;;;;24.70;46.40;;;;;;1531722;75;764;-57
2023/07/22 01:08:16;;;;;;;;;;;24.70;46.50;;;;;;1542811;75;1095;-58
2023/07/22 01:10:19;;;;;;;;;;;24.70;46.50;;;;;;1542790;75;1213;-57
2023/07/22 01:12:21;;;;;;;;;;;24.70;46.50;;;;;;1533936;75;1530;-58
2023/07/22 01:14:23;;;;;;;;;;;24.70;46.30;;;;;;1531748;75;748;-58
2023/07/22 01:16:26;;;;;;;;;;;24.70;46.00;;;;;;1534117;75;1932;-57
2023/07/22 01:18:28;;;;;;;;;;;24.70;45.70;;;;;;1532878;75;718;-58
2023/07/22 01:20:30;;;;;;;;;;;24.70;45.50;;;;;;1525984;75;1121;-57
2023/07/22 01:22:34;;;;;;;;;;;24.70;45.40;;;;;;1536744;75;789;-57
2023/07/22 01:24:36;;;;;;;;;;;24.70;45.30;;;;;;1534479;75;1880;-58
2023/07/22 01:26:37;;;;;;;;;;;24.70;45.40;;;;;;1532810;75;751;-58
2023/07/22 01:28:40;;;;;;;;;;;24.70;45.60;;;;;;1533813;75;757;-56
2023/07/22 01:30:42;;;;;;;;;;;24.70;45.60;;;;;;1549634;75;1130;-59
2023/07/22 01:32:44;;;;;;;;;;;24.70;45.60;;;;;;1531855;75;805;-58
2023/07/22 01:34:46;;;;;;;;;;;24.70;45.70;;;;;;1542202;75;719;-55
2023/07/22 01:36:48;;;;;;;;;;;24.70;45.70;;;;;;1530497;75;1939;-58
2023/07/22 01:38:49;;;;;;;;;;;24.70;45.70;;;;;;1538959;75;1315;-57
2023/07/22 01:40:51;;;;;;;;;;;24.70;45.70;;;;;;1532287;75;751;-58
2023/07/22 01:42:53;;;;;;;;;;;24.70;45.70;;;;;;1529188;75;720;-57
2023/07/22 01:44:55;;;;;;;;;;;24.70;45.70;;;;;;1535574;75;697;-58
2023/07/22 01:46:57;;;;;;;;;;;24.70;45.70;;;;;;1533698;75;850;-59
2023/07/22 01:48:59;;;;;;;;;;;24.70;45.70;;;;;;1532241;75;1140;-56
2023/07/22 01:51:01;;;;;;;;;;;24.60;45.60;;;;;;1541200;75;747;-58
2023/07/22 01:53:05;;;;;;;;;;;24.70;45.60;;;;;;1546511;75;1509;-57
2023/07/22 01:55:10;;;;;;;;;;;24.60;45.20;;;;;;1530224;75;1577;-58
2023/07/22 01:57:10;;;;;;;;;;;24.70;45.20;;;;;;1533148;75;1919;-58
2023/07/22 01:59:12;;;;;;;;;;;24.60;45.00;;;;;;1534471;75;1207;-58
2023/07/22 02:01:15;;;;;;;;;;;24.60;45.10;;;;;;1548765;75;752;-56
2023/07/22 02:03:17;;;;;;;;;;;24.70;45.30;;;;;;1529296;75;722;-58
2023/07/22 02:05:20;;;;;;;;;;;24.70;45.40;;;;;;1535661;75;774;-56
2023/07/22 02:07:26;;;;;;;;;;;24.60;45.40;;;;;;1553490;75;1500;-57
2023/07/22 02:09:27;;;;;;;;;;;24.60;45.50;;;;;;1541815;75;1672;-58
2023/07/22 02:11:28;;;;;;;;;;;24.60;45.50;;;;;;1535357;76;772;-56
2023/07/22 02:13:34;;;;;;;;;;;24.60;45.50;;;;;;1536977;76;754;-56
2023/07/22 02:15:36;;;;;;;;;;;24.60;45.50;;;;;;1536100;75;678;-57
2023/07/22 02:17:37;;;;;;;;;;;24.70;45.60;;;;;;1538652;75;1939;-57
2023/07/22 02:19:39;;;;;;;;;;;24.60;45.50;;;;;;1534875;75;1138;-57
2023/07/22 02:21:41;;;;;;;;;;;24.60;45.50;;;;;;1537815;76;1563;-57
2023/07/22 02:23:43;;;;;;;;;;;24.60;45.50;;;;;;1529776;76;787;-57
2023/07/22 02:25:47;;;;;;;;;;;24.70;45.50;;;;;;1545390;76;830;-58
2023/07/22 02:27:48;;;;;;;;;;;24.70;45.50;;;;;;1533343;76;1943;-58
2023/07/22 02:29:51;;;;;;;;;;;24.70;45.50;;;;;;1532573;76;1142;-57
2023/07/22 02:31:53;;;;;;;;;;;24.60;45.40;;;;;;1538591;76;749;-56
2023/07/22 02:33:55;;;;;;;;;;;24.70;45.50;;;;;;1534631;75;712;-57
2023/07/22 02:35:57;;;;;;;;;;;24.70;45.50;;;;;;1542716;76;1556;-58
2023/07/22 02:37:59;;;;;;;;;;;24.70;45.60;;;;;;1535471;76;1946;-57
2023/07/22 02:40:07;;;;;;;;;;;24.60;45.50;;;;;;1542429;76;1142;-58
2023/07/22 02:42:05;;;;;;;;;;;24.60;45.50;;;;;;1534863;76;1106;-58
2023/07/22 02:44:06;;;;;;;;;;;24.60;45.50;;;;;;1545748;76;706;-57
2023/07/22 02:46:08;;;;;;;;;;;24.60;45.50;;;;;;1544552;76;772;-57
2023/07/22 02:48:10;;;;;;;;;;;24.60;45.50;;;;;;1545745;75;759;-57
2023/07/22 02:50:13;;;;;;;;;;;24.70;45.70;;;;;;1539212;75;1629;-56
2023/07/22 02:52:15;;;;;;;;;;;24.60;45.60;;;;;;1529804;76;676;-57
2023/07/22 02:54:17;;;;;;;;;;;24.60;45.50;;;;;;1530189;76;745;-58
2023/07/22 02:56:19;;;;;;;;;;;24.60;45.30;;;;;;1540543;76;772;-56
2023/07/22 02:58:21;;;;;;;;;;;24.60;45.10;;;;;;1547024;76;1954;-56
2023/07/22 03:00:26;;;;;;;;;;;24.60;45.00;;;;;;1547247;76;1130;-56
2023/07/22 03:02:27;;;;;;;;;;;24.60;45.00;;;;;;1537439;75;715;-57
2023/07/22 03:04:29;;;;;;;;;;;24.60;45.10;;;;;;1534838;76;1552;-57
2023/07/22 03:06:31;;;;;;;;;;;24.60;45.30;;;;;;1534812;75;759;-57
2023/07/22 03:08:33;;;;;;;;;;;24.60;45.30;;;;;;1538928;76;731;-57
2023/07/22 03:10:35;;;;;;;;;;;24.60;45.30;;;;;;1539537;76;1124;-57
2023/07/22 03:12:37;;;;;;;;;;;24.60;45.40;;;;;;1544848;76;728;-57
2023/07/22 03:14:39;;;;;;;;;;;24.60;45.40;;;;;;1542142;74;812;-56
2023/07/22 03:16:41;;;;;;;;;;;24.60;45.40;;;;;;1556985;76;763;-56
2023/07/22 03:18:44;;;;;;;;;;;24.60;45.40;;;;;;1556107;76;1936;-57
2023/07/22 03:20:46;;;;;;;;;;;24.70;45.40;;;;;;1544425;76;673;-56
2023/07/22 03:22:48;;;;;;;;;;;24.60;45.20;;;;;;1545989;76;946;-56
2023/07/22 03:24:50;;;;;;;;;;;24.60;45.20;;;;;;1541223;76;721;-56
2023/07/22 03:26:52;;;;;;;;;;;24.60;45.20;;;;;;1554106;74;761;-57
2023/07/22 03:28:53;;;;;;;;;;;24.60;45.20;;;;;;1541087;76;1186;-58
2023/07/22 03:30:56;;;;;;;;;;;24.60;45.10;;;;;;1553254;74;688;-56
2023/07/22 03:32:58;;;;;;;;;;;24.60;45.10;;;;;;1550945;76;1200;-56
2023/07/22 03:35:01;;;;;;;;;;;24.60;45.00;;;;;;1549328;74;746;-57
2023/07/22 03:37:03;;;;;;;;;;;24.60;44.90;;;;;;1563100;74;732;-56
2023/07/22 03:39:05;;;;;;;;;;;24.60;44.90;;;;;;1548066;76;1980;-56
2023/07/22 03:41:07;;;;;;;;;;;24.60;44.80;;;;;;1555160;76;723;-56
2023/07/22 03:43:09;;;;;;;;;;;24.60;44.70;;;;;;1553456;74;715;-57
2023/07/22 03:45:11;;;;;;;;;;;24.60;44.70;;;;;;1560186;74;1530;-57
2023/07/22 03:47:13;;;;;;;;;;;24.60;44.60;;;;;;1554961;76;769;-57
2023/07/22 03:49:15;;;;;;;;;;;24.60;44.60;;;;;;1544828;76;1084;-58
2023/07/22 03:51:17;;;;;;;;;;;24.60;44.50;;;;;;1543248;74;744;-58
2023/07/22 03:53:19;;;;;;;;;;;24.60;44.50;;;;;;1547230;74;749;-58
2023/07/22 03:55:21;;;;;;;;;;;24.50;44.40;;;;;;1551903;74;752;-56
2023/07/22 03:57:24;;;;;;;;;;;24.50;44.30;;;;;;1540590;74;1945;-57
2023/07/22 03:59:28;;;;;;;;;;;24.50;44.30;;;;;;1548591;76;1592;-58
2023/07/22 04:01:30;;;;;;;;;;;24.50;44.20;;;;;;1546090;76;804;-58
2023/07/22 04:03:33;;;;;;;;;;;24.50;44.20;;;;;;1562055;76;732;-58
2023/07/22 04:05:34;;;;;;;;;;;24.50;44.20;;;;;;1551339;76;675;-58
2023/07/22 04:07:36;;;;;;;;;;;24.60;44.20;;;;;;1551622;76;697;-58
2023/07/22 04:09:38;;;;;;;;;;;24.50;44.10;;;;;;1547422;76;1159;-57
2023/07/22 04:11:40;;;;;;;;;;;24.60;44.00;;;;;;1554339;76;827;-58
2023/07/22 04:13:42;;;;;;;;;;;24.50;44.00;;;;;;1555124;76;1510;-57
2023/07/22 04:15:44;;;;;;;;;;;24.60;44.00;;;;;;1544109;76;720;-57
2023/07/22 04:17:46;;;;;;;;;;;24.60;44.00;;;;;;1547129;74;1945;-57
2023/07/22 04:19:48;;;;;;;;;;;24.50;43.90;;;;;;1542995;76;1223;-58
2023/07/22 04:21:50;;;;;;;;;;;24.50;43.90;;;;;;1541126;76;722;-58
2023/07/22 04:23:53;;;;;;;;;;;24.50;43.80;;;;;;1547572;76;750;-58
2023/07/22 04:25:55;;;;;;;;;;;24.50;43.60;;;;;;1549675;74;746;-57
2023/07/22 04:27:57;;;;;;;;;;;24.50;43.60;;;;;;1543455;76;1387;-58
2023/07/22 04:29:59;;;;;;;;;;;24.50;43.60;;;;;;1552490;76;1169;-57
2023/07/22 04:32:01;;;;;;;;;;;24.50;43.50;;;;;;1545642;74;753;-58
2023/07/22 04:34:03;;;;;;;;;;;24.50;43.50;;;;;;1546969;74;585;-58
2023/07/22 04:36:05;;;;;;;;;;;24.50;43.50;;;;;;1560856;74;759;-57
2023/07/22 04:38:07;;;;;;;;;;;24.50;43.50;;;;;;1560862;74;1957;-58
2023/07/22 04:40:13;;;;;;;;;;;24.50;43.50;;;;;;1549187;74;1084;-57
2023/07/22 04:42:12;;;;;;;;;;;24.50;43.60;;;;;;1553546;74;1637;-58
2023/07/22 04:44:14;;;;;;;;;;;24.50;43.60;;;;;;1553500;76;738;-57
2023/07/22 04:46:16;;;;;;;;;;;24.50;43.70;;;;;;1548687;76;838;-58
2023/07/22 04:48:19;;;;;;;;;;;24.50;43.70;;;;;;1546480;76;775;-57
2023/07/22 04:50:22;;;;;;;;;;;24.50;43.70;;;;;;1555953;74;1154;-58
2023/07/22 04:52:24;;;;;;;;;;;24.50;43.80;;;;;;1549580;76;754;-58
2023/07/22 04:54:28;;;;;;;;;;;24.50;43.80;;;;;;1550403;76;765;-58
2023/07/22 04:56:29;;;;;;;;;;;24.50;43.80;;;;;;1540300;76;1525;-57
2023/07/22 04:58:31;;;;;;;;;;;24.50;43.90;;;;;;1543388;76;1930;-57
2023/07/22 05:00:33;;;;;;;;;;;24.50;44.00;;;;;;1541016;76;1067;-57
2023/07/22 05:02:35;;;;;;;;;;;24.50;44.00;;;;;;1555087;74;792;-58
2023/07/22 05:04:37;;;;;;;;;;;24.50;44.00;;;;;;1546680;74;759;-58
2023/07/22 05:06:39;;;;;;;;;;;24.50;44.10;;;;;;1551591;74;768;-58
2023/07/22 05:08:41;;;;;;;;;;;24.50;44.40;;;;;;1558710;76;742;-58
2023/07/22 05:10:43;;;;;;;;;;;24.50;44.80;;;;;;1549829;74;1534;-58
2023/07/22 05:12:45;;;;;;;;;;;24.50;44.50;;;;;;1550961;74;663;-59
2023/07/22 05:14:46;;;;;;;;;;;24.50;44.40;;;;;;1568333;74;761;-58
2023/07/22 05:16:48;;;;;;;;;;;24.50;44.40;;;;;;1549741;74;823;-59
2023/07/22 05:18:50;;;;;;;;;;;24.40;44.90;;;;;;1549803;74;1956;-57
2023/07/22 05:20:52;;;;;;;;;;;24.50;45.20;;;;;;1553491;74;834;-57
2023/07/22 05:22:54;;;;;;;;;;;24.40;45.20;;;;;;1576186;74;676;-57
2023/07/22 05:24:56;;;;;;;;;;;24.50;45.30;;;;;;1562784;74;1524;-57
2023/07/22 05:26:58;;;;;;;;;;;24.40;45.30;;;;;;1575577;74;776;-57
2023/07/22 05:29:00;;;;;;;;;;;24.40;45.30;;;;;;1560713;74;1116;-58
2023/07/22 05:31:02;;;;;;;;;;;24.50;45.50;;;;;;1557762;74;724;-58
2023/07/22 05:33:03;;;;;;;;;;;24.50;45.50;;;;;;1547552;74;812;-57
2023/07/22 05:35:06;;;;;;;;;;;24.40;45.40;;;;;;1562021;74;725;-56
2023/07/22 05:37:08;;;;;;;;;;;24.40;45.50;;;;;;1562140;74;702;-58
2023/07/22 05:39:10;;;;;;;;;;;24.50;45.60;;;;;;1555468;74;1917;-57
2023/07/22 05:41:12;;;;;;;;;;;24.40;45.70;;;;;;1554305;74;719;-58
2023/07/22 05:43:14;;;;;;;;;;;24.40;45.80;;;;;;1570994;74;762;-57
2023/07/22 05:45:16;;;;;;;;;;;24.50;46.00;;;;;;1555344;74;728;-59
2023/07/22 05:47:18;;;;;;;;;;;24.40;45.90;;;;;;1547973;74;754;-57
2023/07/22 05:49:19;;;;;;;;;;;24.40;46.00;;;;;;1553729;74;1161;-56
2023/07/22 05:51:22;;;;;;;;;;;24.50;46.10;;;;;;1553024;74;763;-57
2023/07/22 05:53:24;;;;;;;;;;;24.40;46.30;;;;;;1576866;74;1500;-59
2023/07/22 05:55:26;;;;;;;;;;;24.50;46.30;;;;;;1563556;74;799;-58
2023/07/22 05:57:28;;;;;;;;;;;24.40;46.30;;;;;;1558933;74;771;-56
2023/07/22 05:59:31;;;;;;;;;;;24.50;46.40;;;;;;1563376;74;1903;-56
2023/07/22 06:01:33;;;;;;;;;;;24.40;46.40;;;;;;1565348;74;779;-59
2023/07/22 06:03:35;;;;;;;;;;;24.50;46.40;;;;;;1562351;74;626;-60
2023/07/22 06:05:36;;;;;;;;;;;24.50;46.20;;;;;;1559811;74;693;-58
2023/07/22 06:07:38;;;;;;;;;;;24.50;46.20;;;;;;1558197;74;1605;-59
2023/07/22 06:09:40;;;;;;;;;;;24.50;46.10;;;;;;1569747;74;1142;-60
2023/07/22 06:11:42;;;;;;;;;;;24.50;46.10;;;;;;1554502;74;1118;-59
2023/07/22 06:13:44;;;;;;;;;;;24.60;46.30;;;;;;1562216;74;719;-59
2023/07/22 06:15:46;;;;;;;;;;;24.60;46.20;;;;;;1563087;74;720;-59
2023/07/22 06:17:48;;;;;;;;;;;24.60;46.20;;;;;;1554413;74;1238;-58
2023/07/22 06:19:49;;;;;;;;;;;24.60;46.00;;;;;;1567074;74;1942;-61
2023/07/22 06:21:51;;;;;;;;;;;24.70;46.10;;;;;;1571073;74;1494;-58
2023/07/22 06:23:53;;;;;;;;;;;24.60;46.00;;;;;;1563340;74;1031;-58
2023/07/22 06:25:55;;;;;;;;;;;24.60;45.90;;;;;;1579914;74;1148;-58
2023/07/22 06:27:57;;;;;;;;;;;24.60;46.10;;;;;;1570489;74;1521;-60
2023/07/22 06:29:59;;;;;;;;;;;24.60;45.90;;;;;;1557339;74;1536;-59
2023/07/22 06:32:01;;;;;;;;;;;24.50;45.90;;;;;;1563452;74;1509;-58
2023/07/22 06:34:03;;;;;;;;;;;24.50;46.00;;;;;;1565207;74;1471;-59
2023/07/22 06:36:05;;;;;;;;;;;24.50;45.90;;;;;;1570689;74;1124;-59
2023/07/22 06:38:07;;;;;;;;;;;24.50;46.00;;;;;;1563438;74;1142;-59
2023/07/22 06:40:09;;;;;;;;;;;24.50;46.00;;;;;;1559099;74;1931;-60
2023/07/22 06:42:10;;;;;;;;;;;24.60;46.30;;;;;;1567008;74;1246;-60
2023/07/22 06:44:12;;;;;;;;;;;24.50;46.20;;;;;;1557685;74;1172;-58
2023/07/22 06:46:14;;;;;;;;;;;24.60;46.50;;;;;;1561448;74;1203;-60
2023/07/22 06:48:17;;;;;;;;;;;24.60;46.30;;;;;;1563617;74;1366;-60
2023/07/22 06:50:18;;;;;;;;;;;24.60;46.40;;;;;;1565505;74;1126;-58
2023/07/22 06:52:20;;;;;;;;;;;24.60;46.00;;;;;;1566940;74;1393;-60
2023/07/22 06:54:22;;;;;;;;;;;24.60;45.90;;;;;;1563135;74;1229;-60
2023/07/22 06:56:26;;;;;;;;;;;24.60;47.10;;;;;;1582158;74;1085;-59
2023/07/22 06:58:28;;;;;;;;;;;24.60;47.90;;;;;;1574106;74;1293;-59
2023/07/22 07:00:29;;;;;;;;;;;24.70;47.90;;;;;;1563254;74;1980;-60
2023/07/22 07:02:31;;;;;;;;;;;24.70;49.00;;;;;;1555627;74;1515;-59
2023/07/22 07:04:33;;;;;;;;;;;24.60;48.70;;;;;;1566950;74;1168;-58
2023/07/22 07:06:35;;;;;;;;;;;24.60;47.90;;;;;;1564907;74;1484;-58
2023/07/22 07:08:37;;;;;;;;;;;24.60;48.10;;;;;;1572120;74;1113;-60
2023/07/22 07:10:42;;;;;;;;;;;24.60;48.00;;;;;;1566347;74;1500;-61
2023/07/22 07:12:44;;;;;;;;;;;24.50;48.00;;;;;;1554554;74;1142;-60
2023/07/22 07:14:46;;;;;;;;;;;24.50;47.60;;;;;;1558501;74;1141;-59
2023/07/22 07:16:48;;;;;;;;;;;24.50;47.40;;;;;;1549079;74;1504;-60
2023/07/22 07:18:51;;;;;;;;;;;24.60;47.80;;;;;;1550696;74;1962;-59
2023/07/22 07:20:52;;;;;;;;;;;24.60;48.40;;;;;;1550112;74;1095;-60
2023/07/22 07:22:54;;;;;;;;;;;24.60;48.40;;;;;;1547358;74;1361;-60
2023/07/22 07:24:56;;;;;;;;;;;24.60;47.10;;;;;;1552512;74;1513;-60
2023/07/22 07:26:58;;;;;;;;;;;24.50;47.20;;;;;;1558915;76;1491;-61
2023/07/22 07:29:00;;;;;;;;;;;24.50;47.20;;;;;;1554589;74;1506;-59
2023/07/22 07:31:02;;;;;;;;;;;24.50;46.10;;;;;;1552267;74;1503;-58
2023/07/22 07:33:04;;;;;;;;;;;24.50;45.20;;;;;;1560543;74;1129;-60
2023/07/22 07:35:06;;;;;;;;;;;24.60;45.50;;;;;;1562187;74;1516;-60
2023/07/22 07:37:08;;;;;;;;;;;24.60;45.30;;;;;;1558397;74;1457;-59
2023/07/22 07:39:10;;;;;;;;;;;24.50;45.20;;;;;;1543825;74;1963;-60
2023/07/22 07:41:12;;;;;;;;;;;24.50;45.20;;;;;;1559652;74;1496;-60
2023/07/22 07:43:14;;;;;;;;;;;24.60;45.00;;;;;;1553619;74;1512;-60
2023/07/22 07:45:16;;;;;;;;;;;24.60;45.10;;;;;;1562964;76;1480;-61
2023/07/22 07:47:18;;;;;;;;;;;24.60;44.70;;;;;;1546221;76;1501;-60
2023/07/22 07:49:20;;;;;;;;;;;24.60;44.70;;;;;;1550229;76;1335;-61
2023/07/22 07:51:22;;;;;;;;;;;24.60;44.80;;;;;;1556733;74;1653;-60
2023/07/22 07:53:24;;;;;;;;;;;24.60;44.40;;;;;;1551928;76;1480;-60
2023/07/22 07:55:26;;;;;;;;;;;24.60;44.30;;;;;;1548525;74;1142;-60
2023/07/22 07:57:28;;;;;;;;;;;24.70;44.20;;;;;;1551189;76;1493;-62
2023/07/22 07:59:30;;;;;;;;;;;24.70;44.20;;;;;;1548154;74;1967;-60
2023/07/22 08:01:32;;;;;;;;;;;24.70;44.20;;;;;;1543166;74;1077;-61
2023/07/22 08:03:34;;;;;;;;;;;24.70;43.40;;;;;;1551872;76;1476;-59
2023/07/22 08:05:36;;;;;;;;;;;24.70;43.50;;;;;;1550862;76;1464;-59
2023/07/22 08:07:38;;;;;;;;;;;24.70;43.50;;;;;;1544428;76;1212;-60
2023/07/22 08:09:40;;;;;;;;;;;24.80;43.60;;;;;;1545781;76;1205;-59
2023/07/22 08:11:43;;;;;;;;;;;24.70;42.00;;;;;;1549230;76;1469;-59
2023/07/22 08:13:45;;;;;;;;;;;24.70;41.80;;;;;;1549256;75;1482;-59
2023/07/22 08:15:46;;;;;;;;;;;24.70;42.00;;;;;;1544556;75;1532;-60
2023/07/22 08:17:48;;;;;;;;;;;24.70;42.10;;;;;;1557575;75;1116;-59
2023/07/22 08:19:50;;;;;;;;;;;24.70;41.90;;;;;;1553070;75;1948;-58
2023/07/22 08:21:52;;;;;;;;;;;24.70;41.70;;;;;;1551914;74;1156;-60
2023/07/22 08:23:54;;;;;;;;;;;24.70;41.30;;;;;;1553280;75;1498;-59
2023/07/22 08:25:56;;;;;;;;;;;24.70;41.10;;;;;;1554595;74;1561;-61
2023/07/22 08:27:58;;;;;;;;;;;24.70;40.70;;;;;;1556926;74;1555;-59
2023/07/22 08:29:59;;;;;;;;;;;24.70;40.40;;;;;;1545397;75;1493;-59
2023/07/22 08:32:02;;;;;;;;;;;24.70;39.20;;;;;;1556060;75;1484;-59
2023/07/22 08:34:04;;;;;;;;;;;24.70;39.40;;;;;;1558705;75;1160;-59
2023/07/22 08:36:06;;;;;;;;;;;24.70;39.60;;;;;;1545453;75;1393;-59
2023/07/22 08:38:08;;;;;;;;;;;24.70;39.70;;;;;;1557527;75;1565;-59
2023/07/22 08:40:10;;;;;;;;;;;24.80;40.00;;;;;;1556147;75;1939;-60
2023/07/22 08:42:12;;;;;;;;;;;24.80;39.90;;;;;;1557779;75;1437;-58
2023/07/22 08:44:14;;;;;;;;;;;24.80;39.70;;;;;;1546866;74;1078;-60
2023/07/22 08:46:17;;;;;;;;;;;24.80;39.80;;;;;;1551396;74;1138;-59
2023/07/22 08:48:18;;;;;;;;;;;24.80;39.70;;;;;;1546137;75;1555;-60
2023/07/22 08:50:21;;;;;;;;;;;24.70;40.10;;;;;;1558122;74;1147;-59
2023/07/22 08:52:23;;;;;;;;;;;24.80;40.20;;;;;;1549283;74;1131;-60
2023/07/22 08:54:25;;;;;;;;;;;24.70;40.40;;;;;;1554621;75;1117;-58
2023/07/22 08:56:27;;;;;;;;;;;24.80;40.60;;;;;;1567017;74;1506;-58
2023/07/22 08:58:29;;;;;;;;;;;24.80;41.40;;;;;;1552708;75;1563;-60
2023/07/22 09:00:31;;;;;;;;;;;24.70;41.50;;;;;;1547423;75;1945;-60
2023/07/22 09:02:36;;;;;;;;;;;24.80;41.60;;;;;;1555327;75;1125;-59
2023/07/22 09:04:38;;;;;;;;;;;24.70;39.90;;;;;;1557429;75;1173;-60
2023/07/22 09:06:40;;;;;;;;;;;24.80;40.70;;;;;;1552973;75;1222;-60
2023/07/22 09:08:43;;;;;;;;;;;24.80;40.10;;;;;;1544924;74;1571;-60
2023/07/22 09:10:44;;;;;;;;;;;24.80;39.90;;;;;;1566936;75;1033;-58
2023/07/22 09:12:47;;;;;;;;;;;24.80;38.50;;;;;;1549779;75;1073;-59
2023/07/22 09:14:48;;;;;;;;;;;24.80;37.80;;;;;;1547274;74;1332;-59
2023/07/22 09:16:50;;;;;;;;;;;24.60;37.80;;;;;;1547721;74;1489;-59
2023/07/22 09:18:54;;;;;;;;;;;24.70;38.50;;;;;;1552616;75;1142;-60
2023/07/22 09:20:56;;;;;;;;;;;24.70;38.20;;;;;;1559369;75;1976;-59
2023/07/22 09:22:58;;;;;;;;;;;24.80;38.10;;;;;;1557319;75;1490;-60
2023/07/22 09:25:16;;;;;;;;;;;24.70;37.40;;;;;;1555111;75;1184;-60
2023/07/22 09:27:19;;;;;;;;;;;24.80;37.30;;;;;;1545578;74;1065;-60
2023/07/22 09:29:38;;;;;;;;;;;24.80;37.90;;;;;;1527838;76;1166;-57
2023/07/22 09:31:49;;;;;;;;;;;24.80;37.90;;;;;;1550034;74;1536;-60
2023/07/22 09:33:53;;;;;;;;;;;24.80;37.20;;;;;;1556409;75;1113;-57
2023/07/22 09:35:55;;;;;;;;;;;24.80;37.30;;;;;;1552234;75;1527;-60
2023/07/22 09:37:57;;;;;;;;;;;24.70;37.00;;;;;;1547899;75;1473;-59
2023/07/22 09:39:59;;;;;;;;;;;24.80;36.50;;;;;;1557190;74;1954;-57
2023/07/22 09:42:02;;;;;;;;;;;24.80;35.70;;;;;;1550572;75;1486;-58
2023/07/22 09:44:03;;;;;;;;;;;24.80;35.50;;;;;;1561240;75;1074;-57
2023/07/22 09:46:12;;;;;;;;;;;24.80;34.90;;;;;;1543469;74;1154;-57
2023/07/22 09:48:14;;;;;;;;;;;24.70;34.70;;;;;;1554540;75;1081;-58
2023/07/22 09:50:20;;;;;;;;;;;24.60;34.90;;;;;;1543607;74;1121;-60
2023/07/22 09:52:23;;;;;;;;;;;24.80;34.80;;;;;;1546739;75;1673;-60
2023/07/22 09:54:25;;;;;;;;;;;24.70;35.20;;;;;;1554081;75;1543;-59
2023/07/22 09:56:27;;;;;;;;;;;24.70;35.20;;;;;;1520426;76;1396;-60
2023/07/22 09:58:29;;;;;;;;;;;24.70;35.00;;;;;;1554327;75;1133;-60
2023/07/22 10:00:31;;;;;;;;;;;24.70;35.00;;;;;;1551127;75;1935;-58
2023/07/22 10:02:33;;;;;;;;;;;24.70;34.50;;;;;;1546334;74;1290;-59
2023/07/22 10:04:35;;;;;;;;;;;24.70;34.20;;;;;;1546200;75;1142;-59
2023/07/22 10:06:37;;;;;;;;;;;24.70;33.90;;;;;;1548629;75;1497;-60
2023/07/22 10:08:39;;;;;;;;;;;24.70;34.10;;;;;;1545979;75;1066;-59
2023/07/22 10:10:41;;;;;;;;;;;24.60;33.80;;;;;;1553396;75;1112;-59
2023/07/22 10:12:43;;;;;;;;;;;24.70;33.70;;;;;;1545057;75;1086;-59
2023/07/22 10:14:45;;;;;;;;;;;24.70;34.10;;;;;;1558162;75;1363;-59
2023/07/22 10:16:47;;;;;;;;;;;24.60;34.70;;;;;;1548247;75;1262;-59
2023/07/22 10:18:49;;;;;;;;;;;24.70;34.70;;;;;;1559938;75;1213;-59
2023/07/22 10:20:51;;;;;;;;;;;24.60;34.20;;;;;;1562132;75;1919;-59
2023/07/22 10:22:53;;;;;;;;;;;24.60;34.10;;;;;;1543631;75;1133;-60
2023/07/22 10:24:55;;;;;;;;;;;24.60;34.20;;;;;;1551506;75;1145;-59
2023/07/22 10:26:57;;;;;;;;;;;24.50;34.20;;;;;;1550336;75;1097;-59
2023/07/22 10:28:58;;;;;;;;;;;24.60;34.90;;;;;;1547643;75;1164;-60
2023/07/22 10:31:00;;;;;;;;;;;24.50;35.00;;;;;;1552238;75;1105;-59
2023/07/22 10:33:02;;;;;;;;;;;24.50;35.00;;;;;;1557512;75;1466;-59
2023/07/22 10:35:04;;;;;;;;;;;24.50;34.80;;;;;;1546851;75;728;-60
2023/07/22 10:37:06;;;;;;;;;;;24.50;34.80;;;;;;1556789;75;749;-60
2023/07/22 10:39:08;;;;;;;;;;;24.50;35.60;;;;;;1521340;76;1114;-59
2023/07/22 10:41:13;;;;;;;;;;;24.50;35.70;;;;;;1552026;75;1943;-58
2023/07/22 10:43:18;;;;;;;;;;;24.50;35.40;;;;;;1546445;75;758;-59
2023/07/22 10:45:30;;;;;;;;;;;24.50;35.30;;;;;;1539599;75;800;-59
2023/07/22 10:47:33;;;;;;;;;;;24.60;35.30;;;;;;1548810;75;1541;-59
2023/07/22 10:49:44;;;;;;;;;;;24.60;35.10;;;;;;1556656;75;1147;-59
2023/07/22 10:51:50;;;;;;;;;;;24.60;35.60;;;;;;1556141;75;704;-60
2023/07/22 10:53:52;;;;;;;;;;;24.60;35.20;;;;;;1562417;75;653;-59
2023/07/22 10:56:08;;;;;;;;;;;24.60;35.00;;;;;;1553576;75;841;-58
2023/07/22 10:58:08;;;;;;;;;;;24.70;35.40;;;;;;1552044;75;899;-59
2023/07/22 11:00:10;;;;;;;;;;;24.70;35.00;;;;;;1550959;75;1939;-59
2023/07/22 11:02:14;;;;;;;;;;;24.70;35.00;;;;;;1521950;76;1654;-58
2023/07/22 11:04:20;;;;;;;;;;;24.60;34.40;;;;;;1553645;75;1836;-59
2023/07/22 11:06:22;;;;;;;;;;;24.60;34.10;;;;;;1546325;75;783;-59
2023/07/22 11:08:38;;;;;;;;;;;24.60;34.60;;;;;;1543946;75;778;-59
2023/07/22 11:10:41;;;;;;;;;;;24.60;34.20;;;;;;1547659;75;1588;-59
2023/07/22 11:12:48;;;;;;;;;;;24.60;34.20;;;;;;1557575;75;1635;-60
2023/07/22 11:14:48;;;;;;;;;;;24.60;34.40;;;;;;1575479;74;1102;-58
2023/07/22 11:16:49;;;;;;;;;;;24.60;34.30;;;;;;1560033;74;1511;-59
2023/07/22 11:18:51;;;;;;;;;;;24.60;34.60;;;;;;1565045;74;1194;-58
2023/07/22 11:20:53;;;;;;;;;;;24.50;34.60;;;;;;1578444;74;1928;-58
2023/07/22 11:22:56;;;;;;;;;;;24.60;34.70;;;;;;1568002;74;797;-58
2023/07/22 11:24:58;;;;;;;;;;;24.50;34.30;;;;;;1555947;74;679;-57
2023/07/22 11:27:00;;;;;;;;;;;24.60;33.90;;;;;;1554110;74;799;-56
2023/07/22 11:29:02;;;;;;;;;;;24.50;33.60;;;;;;1570198;74;1163;-59
2023/07/22 11:31:05;;;;;;;;;;;24.50;34.20;;;;;;1564703;74;1654;-60
2023/07/22 11:33:07;;;;;;;;;;;24.50;34.20;;;;;;1572707;74;793;-58
2023/07/22 11:35:09;;;;;;;;;;;24.50;33.70;;;;;;1566108;74;727;-58
2023/07/22 11:37:11;;;;;;;;;;;24.50;33.60;;;;;;1559613;74;783;-56
2023/07/22 11:39:14;;;;;;;;;;;24.50;33.70;;;;;;1562869;74;1159;-59
2023/07/22 11:41:16;;;;;;;;;;;24.50;33.70;;;;;;1575928;74;1901;-56
2023/07/22 11:43:18;;;;;;;;;;;24.50;33.40;;;;;;1558976;74;1524;-57
2023/07/22 11:45:20;;;;;;;;;;;24.50;33.70;;;;;;1582226;74;794;-59
2023/07/22 11:47:23;;;;;;;;;;;24.50;33.60;;;;;;1575526;74;619;-59
2023/07/22 11:49:26;;;;;;;;;;;24.40;33.90;;;;;;1570288;74;1545;-56
2023/07/22 11:51:28;;;;;;;;;;;24.50;34.00;;;;;;1590575;74;757;-60
2023/07/22 11:53:29;;;;;;;;;;;24.50;34.10;;;;;;1576660;74;752;-58
2023/07/22 11:55:31;;;;;;;;;;;24.40;34.30;;;;;;1559050;74;745;-55
2023/07/22 11:57:33;;;;;;;;;;;24.50;34.40;;;;;;1542864;75;1562;-57
2023/07/22 11:59:36;;;;;;;;;;;24.50;34.50;;;;;;1555621;74;1157;-57
2023/07/22 12:01:38;;;;;;;;;;;24.50;34.60;;;;;;1561984;74;1935;-58
2023/07/22 12:03:40;;;;;;;;;;;24.50;34.90;;;;;;1555227;74;749;-58
2023/07/22 12:05:42;;;;;;;;;;;24.50;35.10;;;;;;1568059;74;665;-55
2023/07/22 12:07:44;;;;;;;;;;;24.50;35.20;;;;;;1574645;74;755;-58